createdAt,value
2022-12-11T00:00:47.230Z,75.23
2022-12-11T00:03:16.128Z,75.59
2022-12-11T00:05:43.683Z,74.71
2022-12-11T00:08:10.793Z,75.51
2022-12-11T00:10:38.201Z,75.34
2022-12-11T00:13:05.433Z,75.04
2022-12-11T00:15:32.354Z,75.23
2022-12-11T00:17:59.335Z,75.32
2022-12-11T00:20:26.211Z,75.65
2022-12-11T00:22:53.152Z,75.14
2022-12-11T00:25:20.068Z,75.24
2022-12-11T00:27:47.536Z,75.04
2022-12-11T00:30:14.839Z,74.58
2022-12-11T00:32:42.346Z,75.42
2022-12-11T00:35:10.342Z,74.62
2022-12-11T00:37:37.486Z,75.12
2022-12-11T00:40:04.897Z,75.44
2022-12-11T00:42:31.982Z,75.23
2022-12-11T00:44:58.921Z,74.86
2022-12-11T00:47:25.800Z,75.32
2022-12-11T00:49:52.867Z,75.24
2022-12-11T00:52:19.730Z,75.25
2022-12-11T00:54:46.653Z,75.49
2022-12-11T00:57:13.664Z,74.52
2022-12-11T00:59:40.821Z,74.35
2022-12-11T01:02:07.710Z,75.10
2022-12-11T01:04:36.340Z,74.80
2022-12-11T01:07:03.310Z,74.88
2022-12-11T01:09:48.678Z,75.38
2022-12-11T01:12:15.624Z,74.93
2022-12-11T01:14:42.498Z,74.83
2022-12-11T01:17:09.467Z,74.35
2022-12-11T01:19:37.412Z,74.66
2022-12-11T01:22:04.428Z,74.60
2022-12-11T01:24:31.341Z,74.57
2022-12-11T01:26:58.347Z,74.44
2022-12-11T01:29:25.269Z,74.37
2022-12-11T01:31:52.250Z,74.38
2022-12-11T01:34:19.204Z,74.89
2022-12-11T01:36:46.143Z,74.83
2022-12-11T01:39:13.087Z,74.58
2022-12-11T01:41:40.125Z,74.67
2022-12-11T01:44:07.956Z,74.61
2022-12-11T01:46:36.001Z,74.86
2022-12-11T01:49:04.842Z,74.70
2022-12-11T01:51:32.334Z,74.19
2022-12-11T01:54:04.820Z,74.16
2022-12-11T01:56:31.901Z,74.35
2022-12-11T01:59:00.479Z,74.60
2022-12-11T02:01:37.571Z,74.63
2022-12-11T02:04:04.694Z,73.93
2022-12-11T02:06:39.276Z,74.74
2022-12-11T02:09:08.085Z,74.22
2022-12-11T02:11:56.266Z,74.35
2022-12-11T02:14:37.719Z,74.33
2022-12-11T02:17:13.960Z,74.85
2022-12-11T02:19:56.152Z,74.07
2022-12-11T02:22:34.201Z,74.01
2022-12-11T02:25:03.935Z,73.98
2022-12-11T02:27:56.779Z,74.50
2022-12-11T02:30:23.917Z,74.52
2022-12-11T02:33:00.078Z,73.50
2022-12-11T02:35:34.042Z,74.23
2022-12-11T02:38:05.937Z,73.92
2022-12-11T02:40:33.441Z,74.93
2022-12-11T02:43:01.571Z,74.51
2022-12-11T02:45:28.513Z,74.35
2022-12-11T02:47:56.382Z,74.21
2022-12-11T02:50:23.917Z,73.81
2022-12-11T02:52:51.788Z,74.33
2022-12-11T02:55:18.814Z,74.23
2022-12-11T02:57:53.412Z,74.40
2022-12-11T03:00:20.676Z,74.18
2022-12-11T03:02:47.686Z,74.27
2022-12-11T03:05:14.815Z,74.84
2022-12-11T03:07:43.158Z,74.45
2022-12-11T03:10:12.292Z,74.41
2022-12-11T03:12:40.532Z,74.29
2022-12-11T03:15:10.791Z,74.15
2022-12-11T03:18:19.236Z,74.35
2022-12-11T03:20:48.365Z,74.08
2022-12-11T03:23:23.954Z,73.97
2022-12-11T03:25:58.693Z,73.87
2022-12-11T03:28:41.742Z,74.48
2022-12-11T03:31:11.615Z,75.19
2022-12-11T03:33:40.713Z,74.21
2022-12-11T03:36:10.087Z,74.68
2022-12-11T03:38:40.004Z,74.00
2022-12-11T03:41:07.202Z,74.29
2022-12-11T03:43:34.070Z,74.55
2022-12-11T03:46:01.309Z,73.76
2022-12-11T03:48:32.079Z,74.50
2022-12-11T03:50:59.066Z,73.65
2022-12-11T03:53:26.467Z,74.01
2022-12-11T03:55:53.543Z,74.09
2022-12-11T03:58:20.420Z,74.15
2022-12-11T04:00:47.322Z,73.83
2022-12-11T04:03:14.837Z,73.52
2022-12-11T04:05:43.039Z,74.45
2022-12-11T04:08:10.498Z,74.70
2022-12-11T04:10:37.491Z,74.38
2022-12-11T04:13:04.446Z,74.45
2022-12-11T04:15:31.434Z,74.20
2022-12-11T04:18:16.791Z,74.27
2022-12-11T04:21:02.285Z,74.12
2022-12-11T04:23:47.662Z,74.44
2022-12-11T04:26:18.477Z,74.30
2022-12-11T04:28:46.205Z,74.19
2022-12-11T04:31:14.215Z,74.72
2022-12-11T04:33:41.347Z,75.02
2022-12-11T04:36:08.825Z,74.87
2022-12-11T04:38:35.908Z,74.31
2022-12-11T04:41:08.092Z,74.12
2022-12-11T04:43:35.129Z,74.18
2022-12-11T04:46:18.232Z,74.40
2022-12-11T04:48:45.458Z,74.91
2022-12-11T04:51:12.470Z,74.48
2022-12-11T04:53:39.556Z,74.34
2022-12-11T04:56:07.596Z,74.49
2022-12-11T04:58:36.108Z,74.61
2022-12-11T05:01:10.104Z,74.07
2022-12-11T05:03:37.164Z,74.34
2022-12-11T05:06:04.290Z,74.92
2022-12-11T05:08:31.318Z,74.24
2022-12-11T05:10:59.196Z,73.79
2022-12-11T05:13:26.903Z,74.42
2022-12-11T05:15:53.921Z,74.47
2022-12-11T05:18:20.918Z,74.55
2022-12-11T05:21:01.394Z,74.29
2022-12-11T05:23:28.528Z,74.72
2022-12-11T05:26:00.108Z,74.69
2022-12-11T05:28:28.244Z,74.45
2022-12-11T05:30:58.726Z,74.63
2022-12-11T05:33:25.850Z,74.88
2022-12-11T05:35:52.768Z,74.87
2022-12-11T05:38:19.823Z,74.77
2022-12-11T05:41:02.141Z,74.14
2022-12-11T05:43:30.036Z,74.46
2022-12-11T05:45:57.343Z,74.91
2022-12-11T05:48:24.473Z,74.79
2022-12-11T05:50:58.664Z,74.17
2022-12-11T05:53:25.791Z,74.48
2022-12-11T05:55:52.704Z,74.34
2022-12-11T05:58:20.104Z,73.56
2022-12-11T06:00:47.733Z,74.14
2022-12-11T06:03:14.658Z,74.66
2022-12-11T06:05:41.986Z,74.05
2022-12-11T06:08:09.028Z,74.04
2022-12-11T06:10:36.035Z,74.43
2022-12-11T06:13:03.031Z,73.85
2022-12-11T06:15:30.012Z,74.04
2022-12-11T06:17:56.989Z,73.86
2022-12-11T06:20:23.938Z,74.63
2022-12-11T06:22:50.965Z,74.01
2022-12-11T06:25:18.018Z,73.89
2022-12-11T06:27:44.986Z,73.80
2022-12-11T06:30:12.337Z,74.54
2022-12-11T06:32:39.324Z,73.90
2022-12-11T06:35:06.631Z,74.24
2022-12-11T06:37:35.314Z,74.12
2022-12-11T06:40:02.609Z,74.00
2022-12-11T06:42:30.498Z,74.04
2022-12-11T06:44:59.837Z,73.46
2022-12-11T06:47:27.534Z,74.00
2022-12-11T06:49:55.091Z,74.42
2022-12-11T06:52:22.795Z,73.80
2022-12-11T06:54:49.826Z,73.76
2022-12-11T06:57:17.570Z,73.69
2022-12-11T06:59:44.605Z,73.75
2022-12-11T07:02:15.220Z,74.37
2022-12-11T07:04:42.340Z,73.73
2022-12-11T07:07:09.588Z,74.16
2022-12-11T07:09:37.606Z,73.90
2022-12-11T07:12:04.952Z,74.56
2022-12-11T07:14:31.944Z,73.63
2022-12-11T07:16:59.002Z,73.81
2022-12-11T07:19:26.079Z,73.81
2022-12-11T07:21:53.238Z,73.96
2022-12-11T07:24:20.150Z,74.24
2022-12-11T07:26:47.329Z,74.29
2022-12-11T07:29:14.261Z,73.78
2022-12-11T07:31:41.236Z,73.84
2022-12-11T07:34:08.249Z,73.71
2022-12-11T07:36:35.377Z,73.69
2022-12-11T07:39:02.320Z,73.96
2022-12-11T07:41:29.428Z,74.07
2022-12-11T07:43:56.405Z,73.65
2022-12-11T07:46:24.577Z,73.96
2022-12-11T07:48:51.629Z,73.08
2022-12-11T07:51:19.499Z,73.70
2022-12-11T07:53:48.030Z,73.53
2022-12-11T07:56:15.891Z,74.07
2022-12-11T07:58:42.977Z,74.03
2022-12-11T08:01:13.926Z,73.90
2022-12-11T08:03:40.937Z,74.31
2022-12-11T08:06:08.173Z,73.56
2022-12-11T08:08:35.230Z,73.73
2022-12-11T08:11:12.229Z,73.22
2022-12-11T08:13:39.271Z,73.73
2022-12-11T08:16:07.407Z,73.55
2022-12-11T08:18:34.956Z,73.72
2022-12-11T08:21:12.766Z,73.20
2022-12-11T08:23:39.769Z,73.44
2022-12-11T08:26:08.090Z,73.91
2022-12-11T08:28:35.038Z,73.31
2022-12-11T08:31:04.767Z,74.04
2022-12-11T08:33:32.011Z,73.13
2022-12-11T08:35:58.962Z,73.89
2022-12-11T08:38:26.017Z,73.30
2022-12-11T08:40:53.056Z,73.43
2022-12-11T08:43:19.988Z,73.62
2022-12-11T08:45:47.038Z,73.31
2022-12-11T08:48:14.804Z,73.70
2022-12-11T08:50:42.009Z,74.09
2022-12-11T08:53:08.995Z,73.54
2022-12-11T08:55:35.886Z,73.39
2022-12-11T08:58:03.394Z,72.49
2022-12-11T09:00:30.376Z,73.11
2022-12-11T09:02:57.388Z,73.22
2022-12-11T09:05:24.408Z,72.81
2022-12-11T09:07:51.377Z,73.26
2022-12-11T09:10:18.580Z,73.41
2022-12-11T09:12:45.564Z,73.08
2022-12-11T09:15:12.916Z,72.78
2022-12-11T09:17:40.206Z,73.09
2022-12-11T09:20:07.708Z,72.95
2022-12-11T09:22:34.729Z,73.52
2022-12-11T09:25:01.746Z,73.33
2022-12-11T09:27:29.449Z,73.57
2022-12-11T09:29:56.445Z,72.93
2022-12-11T09:32:23.401Z,73.12
2022-12-11T09:34:51.529Z,72.30
2022-12-11T09:37:18.498Z,72.43
2022-12-11T09:39:45.440Z,72.80
2022-12-11T09:42:39.483Z,73.07
2022-12-11T09:45:10.961Z,73.12
2022-12-11T09:47:43.380Z,72.66
2022-12-11T09:50:10.386Z,72.54
2022-12-11T09:52:46.389Z,72.83
2022-12-11T09:55:16.019Z,72.40
2022-12-11T09:57:43.063Z,72.48
2022-12-11T10:00:14.756Z,72.61
2022-12-11T10:03:07.347Z,71.47
2022-12-11T10:06:08.178Z,71.76
2022-12-11T10:08:56.686Z,72.24
2022-12-11T10:11:45.501Z,71.88
2022-12-11T10:14:27.585Z,71.95
2022-12-11T10:17:00.119Z,72.29
2022-12-11T10:19:29.007Z,72.84
2022-12-11T10:21:55.952Z,72.59
2022-12-11T10:24:59.386Z,72.82
2022-12-11T10:27:21.515Z,72.76
2022-12-11T10:29:49.659Z,72.85
2022-12-11T10:32:25.256Z,72.81
2022-12-11T10:35:02.372Z,72.22
2022-12-11T10:37:29.375Z,72.68
2022-12-11T10:39:56.310Z,72.46
2022-12-11T10:42:23.421Z,72.19
2022-12-11T10:44:57.656Z,72.67
2022-12-11T10:47:24.726Z,72.08
2022-12-11T10:49:59.743Z,72.54
2022-12-11T10:52:33.787Z,72.35
2022-12-11T10:55:20.982Z,72.53
2022-12-11T10:58:02.462Z,72.40
2022-12-11T11:00:30.909Z,72.35
2022-12-11T11:02:58.103Z,71.83
2022-12-11T11:05:35.955Z,72.88
2022-12-11T11:08:19.829Z,72.05
2022-12-11T11:10:54.868Z,71.50
2022-12-11T11:13:23.552Z,71.93
2022-12-11T11:15:58.586Z,72.51
2022-12-11T11:18:27.180Z,72.06
2022-12-11T11:20:54.126Z,72.29
2022-12-11T11:23:21.878Z,71.99
2022-12-11T11:25:59.657Z,72.07
2022-12-11T11:28:38.058Z,71.80
2022-12-11T11:31:09.560Z,72.24
2022-12-11T11:33:37.201Z,72.13
2022-12-11T11:36:06.043Z,72.14
2022-12-11T11:38:36.009Z,71.68
2022-12-11T11:41:11.501Z,72.31
2022-12-11T11:43:46.580Z,72.35
2022-12-11T11:46:29.231Z,71.85
2022-12-11T11:49:19.525Z,71.55
2022-12-11T11:51:54.616Z,71.58
2022-12-11T11:54:28.395Z,71.63
2022-12-11T11:57:03.638Z,71.44
2022-12-11T11:59:43.233Z,71.86
2022-12-11T12:02:19.375Z,71.62
2022-12-11T12:04:46.798Z,71.74
2022-12-11T12:07:36.735Z,71.09
2022-12-11T12:10:26.718Z,70.66
2022-12-11T12:13:47.697Z,71.57
2022-12-11T12:16:22.939Z,71.70
2022-12-11T12:19:02.073Z,71.86
2022-12-11T12:21:36.496Z,70.99
2022-12-11T12:24:03.401Z,71.43
2022-12-11T12:26:32.653Z,71.34
2022-12-11T12:29:18.163Z,71.41
2022-12-11T12:31:54.127Z,71.16
2022-12-11T12:34:39.039Z,70.89
2022-12-11T12:37:27.490Z,70.83
2022-12-11T12:40:13.470Z,71.05
2022-12-11T12:42:46.687Z,71.29
2022-12-11T12:45:28.267Z,71.54
2022-12-11T12:47:55.268Z,71.74
2022-12-11T12:50:24.168Z,72.10
2022-12-11T12:52:51.601Z,71.32
2022-12-11T12:55:23.718Z,71.73
2022-12-11T12:57:54.946Z,71.50
2022-12-11T13:00:34.690Z,71.25
2022-12-11T13:03:03.763Z,71.09
2022-12-11T13:05:33.366Z,70.62
2022-12-11T13:08:02.421Z,70.89
2022-12-11T13:10:36.422Z,71.26
2022-12-11T13:13:04.300Z,71.34
2022-12-11T13:15:43.830Z,71.02
2022-12-11T13:18:37.013Z,70.18
2022-12-11T13:21:24.817Z,71.15
2022-12-11T13:23:51.833Z,71.06
2022-12-11T13:26:32.332Z,70.28
2022-12-11T13:28:59.465Z,71.63
2022-12-11T13:31:34.791Z,70.87
2022-12-11T13:34:19.083Z,70.47
2022-12-11T13:36:50.221Z,71.13
2022-12-11T13:39:24.104Z,70.71
2022-12-11T13:41:54.004Z,71.07
2022-12-11T13:44:27.198Z,70.51
2022-12-11T13:46:55.730Z,70.60
2022-12-11T13:49:24.994Z,70.77
2022-12-11T13:51:54.256Z,70.38
2022-12-11T13:54:21.173Z,70.13
2022-12-11T13:57:02.914Z,70.62
2022-12-11T13:59:34.945Z,71.09
2022-12-11T14:02:06.339Z,70.56
2022-12-11T14:04:33.980Z,71.03
2022-12-11T14:07:00.864Z,70.77
2022-12-11T14:09:27.883Z,70.50
2022-12-11T14:11:57.476Z,70.03
2022-12-11T14:14:44.671Z,70.62
2022-12-11T14:17:14.181Z,70.33
2022-12-11T14:19:45.842Z,70.44
2022-12-11T14:22:27.174Z,70.01
2022-12-11T14:24:57.730Z,70.40
2022-12-11T14:27:25.002Z,70.59
2022-12-11T14:29:52.055Z,70.02
2022-12-11T14:32:31.194Z,70.40
2022-12-11T14:34:58.129Z,70.79
2022-12-11T14:37:25.272Z,70.26
2022-12-11T14:40:07.274Z,70.03
2022-12-11T14:42:42.797Z,70.42
2022-12-11T14:45:21.289Z,69.85
2022-12-11T14:47:48.726Z,70.46
2022-12-11T14:50:18.535Z,70.54
2022-12-11T14:52:51.689Z,70.25
2022-12-11T14:55:22.097Z,70.12
2022-12-11T14:57:50.260Z,70.59
2022-12-11T15:00:30.593Z,70.27
2022-12-11T15:03:05.431Z,70.14
2022-12-11T15:05:38.800Z,70.53
2022-12-11T15:08:10.845Z,70.87
2022-12-11T15:11:02.248Z,70.44
2022-12-11T15:13:29.223Z,70.22
2022-12-11T15:15:56.943Z,70.15
2022-12-11T15:18:31.680Z,70.63
2022-12-11T15:21:00.840Z,70.41
2022-12-11T15:23:28.644Z,70.58
2022-12-11T15:25:59.781Z,70.66
2022-12-11T15:28:30.641Z,69.93
2022-12-11T15:31:00.061Z,70.19
2022-12-11T15:33:32.542Z,70.41
2022-12-11T15:36:06.022Z,69.77
2022-12-11T15:38:39.620Z,70.49
2022-12-11T15:41:07.157Z,70.67
2022-12-11T15:43:36.177Z,70.40
2022-12-11T15:46:03.976Z,70.56
2022-12-11T15:48:31.001Z,70.37
2022-12-11T15:50:57.978Z,70.61
2022-12-11T15:53:24.970Z,70.23
2022-12-11T15:55:51.953Z,70.34
2022-12-11T15:58:23.308Z,70.35
2022-12-11T16:00:50.650Z,70.51
2022-12-11T16:03:19.145Z,70.54
2022-12-11T16:05:46.138Z,70.30
2022-12-11T16:08:15.243Z,70.67
2022-12-11T16:10:45.536Z,70.50
2022-12-11T16:13:13.009Z,70.54
2022-12-11T16:15:41.939Z,70.43
2022-12-11T16:18:11.006Z,70.72
2022-12-11T16:20:38.237Z,70.36
2022-12-11T16:23:05.275Z,70.31
2022-12-11T16:25:32.970Z,70.29
2022-12-11T16:28:00.601Z,70.35
2022-12-11T16:30:28.300Z,70.65
2022-12-11T16:32:55.263Z,70.49
2022-12-11T16:35:22.431Z,70.50
2022-12-11T16:37:50.784Z,71.07
2022-12-11T16:40:17.826Z,70.94
2022-12-11T16:42:44.762Z,70.41
2022-12-11T16:45:14.381Z,70.69
2022-12-11T16:47:41.565Z,70.52
2022-12-11T16:50:09.179Z,70.46
2022-12-11T16:52:36.170Z,70.99
2022-12-11T16:55:03.211Z,70.73
2022-12-11T16:57:30.480Z,70.75
2022-12-11T16:59:57.373Z,70.93
2022-12-11T17:02:24.429Z,70.67
2022-12-11T17:04:54.033Z,70.61
2022-12-11T17:07:21.243Z,70.70
2022-12-11T17:09:48.187Z,70.67
2022-12-11T17:12:15.111Z,70.74
2022-12-11T17:14:42.083Z,70.70
2022-12-11T17:17:09.415Z,70.77
2022-12-11T17:19:37.000Z,70.63
2022-12-11T17:22:04.714Z,70.89
2022-12-11T17:24:31.632Z,70.53
2022-12-11T17:26:59.805Z,70.41
2022-12-11T17:29:26.737Z,70.53
2022-12-11T17:31:53.684Z,70.56
2022-12-11T17:34:20.556Z,70.46
2022-12-11T17:36:47.684Z,70.40
2022-12-11T17:39:14.617Z,70.65
2022-12-11T17:41:41.578Z,70.46
2022-12-11T17:44:08.478Z,70.75
2022-12-11T17:46:35.496Z,70.77
2022-12-11T17:49:03.990Z,70.76
2022-12-11T17:51:30.904Z,70.50
2022-12-11T17:53:57.901Z,70.22
2022-12-11T17:56:25.049Z,70.41
2022-12-11T17:58:52.079Z,70.59
2022-12-11T18:01:19.373Z,70.86
2022-12-11T18:03:47.143Z,70.34
2022-12-11T18:06:14.771Z,70.47
2022-12-11T18:08:41.946Z,70.35
2022-12-11T18:11:16.725Z,70.58
2022-12-11T18:13:44.147Z,70.49
2022-12-11T18:16:17.477Z,70.73
2022-12-11T18:18:45.958Z,70.42
2022-12-11T18:21:14.177Z,70.35
2022-12-11T18:23:41.088Z,70.35
2022-12-11T18:26:08.070Z,70.36
2022-12-11T18:28:35.047Z,70.81
2022-12-11T18:31:02.580Z,70.61
2022-12-11T18:33:30.105Z,70.38
2022-12-11T18:35:57.221Z,70.70
2022-12-11T18:38:24.387Z,70.71
2022-12-11T18:40:51.775Z,70.49
2022-12-11T18:43:18.676Z,70.58
2022-12-11T18:45:45.745Z,70.47
2022-12-11T18:48:13.378Z,70.80
2022-12-11T18:50:52.338Z,70.28
2022-12-11T18:53:19.732Z,70.69
2022-12-11T18:55:47.617Z,71.00
2022-12-11T18:58:16.297Z,70.83
2022-12-11T19:00:43.343Z,70.94
2022-12-11T19:03:10.663Z,70.86
2022-12-11T19:05:40.460Z,70.62
2022-12-11T19:08:07.535Z,71.03
2022-12-11T19:10:34.504Z,70.69
2022-12-11T19:13:01.392Z,70.94
2022-12-11T19:15:28.418Z,70.45
2022-12-11T19:17:55.354Z,70.90
2022-12-11T19:20:48.061Z,70.61
2022-12-11T19:23:09.261Z,70.46
2022-12-11T19:25:42.353Z,70.50
2022-12-11T19:28:09.390Z,70.68
2022-12-11T19:30:36.981Z,70.54
2022-12-11T19:33:03.910Z,70.46
2022-12-11T19:35:30.858Z,70.54
2022-12-11T19:37:57.779Z,70.39
2022-12-11T19:40:26.421Z,70.89
2022-12-11T19:42:53.497Z,70.28
2022-12-11T19:45:20.413Z,70.63
2022-12-11T19:47:47.295Z,70.47
2022-12-11T19:50:14.276Z,69.91
2022-12-11T19:52:45.958Z,70.29
2022-12-11T19:55:15.221Z,70.37
2022-12-11T19:57:42.191Z,70.47
2022-12-11T20:00:09.586Z,70.25
2022-12-11T20:02:39.148Z,70.37
2022-12-11T20:05:06.401Z,70.46
2022-12-11T20:07:33.348Z,70.17
2022-12-11T20:10:00.595Z,70.21
2022-12-11T20:12:28.642Z,70.55
2022-12-11T20:14:55.613Z,70.23
2022-12-11T20:17:22.532Z,70.11
2022-12-11T20:19:49.893Z,70.38
2022-12-11T20:22:16.892Z,70.25
2022-12-11T20:24:43.833Z,70.41
2022-12-11T20:27:12.553Z,70.29
2022-12-11T20:29:39.562Z,69.94
2022-12-11T20:32:07.529Z,70.54
2022-12-11T20:34:34.549Z,70.15
2022-12-11T20:37:01.605Z,70.39
2022-12-11T20:39:29.221Z,70.11
2022-12-11T20:41:56.188Z,69.94
2022-12-11T20:44:23.180Z,70.29
2022-12-11T20:46:51.025Z,70.39
2022-12-11T20:49:18.071Z,70.49
2022-12-11T20:51:44.975Z,70.02
2022-12-11T20:54:12.285Z,70.09
2022-12-11T20:56:39.327Z,70.50
2022-12-11T20:59:06.953Z,69.88
2022-12-11T21:01:35.039Z,70.50
2022-12-11T21:04:02.033Z,70.46
2022-12-11T21:06:38.841Z,70.22
2022-12-11T21:09:08.061Z,70.08
2022-12-11T21:11:35.030Z,70.45
2022-12-11T21:14:01.898Z,70.07
2022-12-11T21:16:29.086Z,70.14
2022-12-11T21:18:56.755Z,70.12
2022-12-11T21:21:23.777Z,70.33
2022-12-11T21:23:50.843Z,70.79
2022-12-11T21:26:17.858Z,70.58
2022-12-11T21:28:44.796Z,70.24
2022-12-11T21:31:13.607Z,70.59
2022-12-11T21:33:40.613Z,70.85
2022-12-11T21:36:11.097Z,70.58
2022-12-11T21:38:38.207Z,70.51
2022-12-11T21:41:13.828Z,70.55
2022-12-11T21:44:00.422Z,70.38
2022-12-11T21:46:29.009Z,70.71
2022-12-11T21:48:56.146Z,70.33
2022-12-11T21:51:34.135Z,70.60
2022-12-11T21:54:03.505Z,70.35
2022-12-11T21:56:31.817Z,70.83
2022-12-11T21:58:58.832Z,70.99
2022-12-11T22:01:31.489Z,70.79
2022-12-11T22:03:58.831Z,70.12
2022-12-11T22:06:25.706Z,70.98
2022-12-11T22:08:52.735Z,70.57
2022-12-11T22:11:20.827Z,70.84
2022-12-11T22:13:47.851Z,70.70
2022-12-11T22:16:15.003Z,70.50
2022-12-11T22:18:42.014Z,70.77
2022-12-11T22:21:09.002Z,70.66
2022-12-11T22:23:37.814Z,70.57
2022-12-11T22:26:05.204Z,71.01
2022-12-11T22:28:32.139Z,70.92
2022-12-11T22:30:59.128Z,70.62
2022-12-11T22:33:26.921Z,70.49
2022-12-11T22:35:59.816Z,70.56
2022-12-11T22:38:26.910Z,70.48
2022-12-11T22:40:54.341Z,70.60
2022-12-11T22:43:21.805Z,70.80
2022-12-11T22:45:49.440Z,70.55
2022-12-11T22:48:16.456Z,70.42
2022-12-11T22:50:44.322Z,70.92
2022-12-11T22:53:11.830Z,70.74
2022-12-11T22:55:39.889Z,70.90
2022-12-11T22:58:07.120Z,71.02
2022-12-11T23:00:34.125Z,70.80
2022-12-11T23:03:02.107Z,70.79
2022-12-11T23:05:29.491Z,70.92
2022-12-11T23:07:56.558Z,70.56
2022-12-11T23:10:23.588Z,70.55
2022-12-11T23:12:50.510Z,70.57
2022-12-11T23:15:18.329Z,71.01
2022-12-11T23:17:45.207Z,70.30
2022-12-11T23:20:12.209Z,70.08
2022-12-11T23:22:39.107Z,70.10
2022-12-11T23:25:06.429Z,70.20
2022-12-11T23:27:33.318Z,70.07
2022-12-11T23:30:00.287Z,70.33
2022-12-11T23:32:27.673Z,70.12
2022-12-11T23:34:54.599Z,70.18
2022-12-11T23:37:21.539Z,70.15
2022-12-11T23:39:48.453Z,70.61
2022-12-11T23:42:15.393Z,70.40
2022-12-11T23:44:42.294Z,70.60
2022-12-11T23:47:09.219Z,70.71
2022-12-11T23:49:36.136Z,70.41
2022-12-11T23:52:03.281Z,69.86
2022-12-11T23:54:30.890Z,70.11
2022-12-11T23:56:57.853Z,70.74
2022-12-11T23:59:24.805Z,70.50
